createdAt,value
2022-10-10T00:02:21.696Z,5.87
2022-10-10T00:04:48.323Z,6.10
2022-10-10T00:07:14.922Z,5.60
2022-10-10T00:09:41.480Z,5.93
2022-10-10T00:12:08.095Z,5.60
2022-10-10T00:14:34.677Z,5.80
2022-10-10T00:17:01.262Z,5.60
2022-10-10T00:19:27.935Z,6.47
2022-10-10T00:21:54.742Z,5.90
2022-10-10T00:24:21.331Z,6.23
2022-10-10T00:26:47.905Z,6.37
2022-10-10T00:29:14.492Z,6.70
2022-10-10T00:31:41.121Z,5.70
2022-10-10T00:34:07.713Z,6.10
2022-10-10T00:36:34.286Z,5.57
2022-10-10T00:39:01.673Z,6.40
2022-10-10T00:41:29.391Z,6.23
2022-10-10T00:44:09.625Z,6.20
2022-10-10T00:46:36.715Z,5.83
2022-10-10T00:49:04.748Z,6.63
2022-10-10T00:51:31.435Z,5.60
2022-10-10T00:53:59.946Z,5.73
2022-10-10T00:56:28.894Z,7.27
2022-10-10T00:58:57.875Z,6.27
2022-10-10T01:01:24.484Z,6.70
2022-10-10T01:03:51.164Z,6.40
2022-10-10T01:06:17.724Z,6.23
2022-10-10T01:08:44.430Z,6.27
2022-10-10T01:11:29.757Z,5.90
2022-10-10T01:14:11.829Z,6.13
2022-10-10T01:16:38.403Z,5.37
2022-10-10T01:19:07.730Z,5.93
2022-10-10T01:21:43.042Z,6.20
2022-10-10T01:24:28.599Z,5.30
2022-10-10T01:27:14.185Z,5.67
2022-10-10T01:29:47.475Z,5.37
2022-10-10T01:32:22.714Z,5.80
2022-10-10T01:35:27.684Z,5.30
2022-10-10T01:38:10.435Z,5.07
2022-10-10T01:40:45.846Z,5.50
2022-10-10T01:43:12.511Z,5.13
2022-10-10T01:45:43.648Z,4.67
2022-10-10T01:48:10.380Z,4.90
2022-10-10T01:50:47.315Z,5.17
2022-10-10T01:53:25.478Z,4.47
2022-10-10T01:55:55.432Z,5.30
2022-10-10T01:58:30.860Z,4.77
2022-10-10T02:01:07.033Z,4.73
2022-10-10T02:03:37.918Z,5.30
2022-10-10T02:06:09.899Z,5.00
2022-10-10T02:08:45.775Z,5.10
2022-10-10T02:11:13.210Z,4.97
2022-10-10T02:13:43.287Z,5.23
2022-10-10T02:16:14.332Z,5.27
2022-10-10T02:18:45.527Z,4.67
2022-10-10T02:21:12.983Z,4.63
2022-10-10T02:23:41.820Z,5.20
2022-10-10T02:26:10.507Z,5.00
2022-10-10T02:28:40.071Z,5.47
2022-10-10T02:31:12.263Z,5.17
2022-10-10T02:33:44.773Z,5.20
2022-10-10T02:36:11.901Z,5.00
2022-10-10T02:38:38.773Z,5.10
2022-10-10T02:41:06.290Z,5.00
2022-10-10T02:43:33.871Z,5.00
2022-10-10T02:46:05.219Z,4.70
2022-10-10T02:48:32.291Z,4.53
2022-10-10T02:50:59.293Z,5.17
2022-10-10T02:53:26.095Z,4.93
2022-10-10T02:55:52.686Z,5.30
2022-10-10T02:58:19.346Z,5.03
2022-10-10T03:00:45.948Z,4.93
2022-10-10T03:03:12.705Z,4.67
2022-10-10T03:05:39.369Z,5.00
2022-10-10T03:08:11.296Z,5.10
2022-10-10T03:10:38.363Z,4.90
2022-10-10T03:13:04.936Z,5.23
2022-10-10T03:15:31.692Z,4.70
2022-10-10T03:17:58.272Z,5.50
2022-10-10T03:20:24.935Z,5.60
2022-10-10T03:22:51.857Z,5.20
2022-10-10T03:25:18.804Z,5.23
2022-10-10T03:27:45.419Z,5.30
2022-10-10T03:30:12.183Z,5.67
2022-10-10T03:32:38.875Z,5.30
2022-10-10T03:35:05.526Z,4.93
2022-10-10T03:37:32.216Z,4.77
2022-10-10T03:39:58.760Z,5.00
2022-10-10T03:42:25.358Z,5.13
2022-10-10T03:44:51.946Z,5.73
2022-10-10T03:47:18.498Z,5.27
2022-10-10T03:49:45.204Z,5.40
2022-10-10T03:52:11.781Z,5.17
2022-10-10T03:54:38.431Z,5.57
2022-10-10T03:57:05.026Z,5.40
2022-10-10T03:59:31.633Z,5.20
2022-10-10T04:01:58.652Z,5.73
2022-10-10T04:04:25.358Z,5.57
2022-10-10T04:06:51.930Z,5.43
2022-10-10T04:09:18.537Z,4.60
2022-10-10T04:11:45.259Z,5.43
2022-10-10T04:14:11.857Z,5.53
2022-10-10T04:16:38.447Z,5.77
2022-10-10T04:19:05.095Z,5.63
2022-10-10T04:21:31.715Z,6.03
2022-10-10T04:23:58.282Z,6.00
2022-10-10T04:26:24.893Z,5.83
2022-10-10T04:28:51.475Z,5.90
2022-10-10T04:31:18.133Z,6.27
2022-10-10T04:33:44.700Z,6.40
2022-10-10T04:36:11.309Z,6.33
2022-10-10T04:38:38.258Z,6.77
2022-10-10T04:41:04.997Z,6.60
2022-10-10T04:43:31.610Z,5.57
2022-10-10T04:46:01.169Z,6.20
2022-10-10T04:48:27.941Z,6.20
2022-10-10T04:50:55.798Z,5.73
2022-10-10T04:53:22.672Z,6.03
2022-10-10T04:55:49.352Z,6.10
2022-10-10T04:58:16.170Z,6.20
2022-10-10T05:00:42.952Z,6.80
2022-10-10T05:03:12.598Z,6.20
2022-10-10T05:05:39.845Z,6.43
2022-10-10T05:08:06.488Z,6.23
2022-10-10T05:10:37.735Z,6.60
2022-10-10T05:13:04.636Z,6.97
2022-10-10T05:15:33.556Z,5.80
2022-10-10T05:18:00.122Z,6.03
2022-10-10T05:20:26.712Z,5.80
2022-10-10T05:22:53.721Z,6.10
2022-10-10T05:25:20.541Z,6.63
2022-10-10T05:27:47.093Z,6.43
2022-10-10T05:30:13.940Z,5.77
2022-10-10T05:32:40.574Z,6.83
2022-10-10T05:35:07.554Z,6.43
2022-10-10T05:37:34.196Z,7.80
2022-10-10T05:40:01.131Z,7.03
2022-10-10T05:42:27.755Z,6.40
2022-10-10T05:44:54.341Z,7.40
2022-10-10T05:47:25.385Z,8.30
2022-10-10T05:49:54.067Z,7.87
2022-10-10T05:52:20.740Z,9.00
2022-10-10T05:54:47.271Z,6.70
2022-10-10T05:57:16.404Z,7.00
2022-10-10T05:59:43.230Z,6.80
2022-10-10T06:02:11.730Z,6.90
2022-10-10T06:04:38.418Z,7.50
2022-10-10T06:07:05.033Z,6.07
2022-10-10T06:09:31.623Z,6.77
2022-10-10T06:11:58.259Z,7.00
2022-10-10T06:14:24.834Z,7.30
2022-10-10T06:16:51.473Z,7.40
2022-10-10T06:19:18.182Z,7.10
2022-10-10T06:21:44.887Z,6.37
2022-10-10T06:24:11.461Z,6.40
2022-10-10T06:26:38.066Z,7.10
2022-10-10T06:29:05.232Z,6.20
2022-10-10T06:31:31.788Z,5.97
2022-10-10T06:33:58.621Z,6.63
2022-10-10T06:36:25.391Z,6.57
2022-10-10T06:38:51.985Z,5.43
2022-10-10T06:41:18.726Z,6.13
2022-10-10T06:43:45.347Z,5.77
2022-10-10T06:46:12.207Z,5.93
2022-10-10T06:48:38.905Z,6.50
2022-10-10T06:51:07.532Z,6.60
2022-10-10T06:53:34.503Z,6.77
2022-10-10T06:56:01.664Z,6.67
2022-10-10T06:58:29.296Z,6.30
2022-10-10T07:00:58.184Z,5.50
2022-10-10T07:03:27.454Z,5.80
2022-10-10T07:05:58.888Z,5.60
2022-10-10T07:08:26.729Z,5.63
2022-10-10T07:10:53.519Z,5.17
2022-10-10T07:13:21.333Z,5.37
2022-10-10T07:15:48.357Z,4.87
2022-10-10T07:18:17.257Z,5.03
2022-10-10T07:20:44.761Z,5.40
2022-10-10T07:23:13.411Z,4.80
2022-10-10T07:25:41.434Z,5.03
2022-10-10T07:28:09.128Z,4.37
2022-10-10T07:30:40.671Z,4.37
2022-10-10T07:33:08.732Z,3.90
2022-10-10T07:35:36.860Z,4.07
2022-10-10T07:38:03.812Z,3.80
2022-10-10T07:40:30.729Z,3.60
2022-10-10T07:42:58.340Z,3.90
2022-10-10T07:45:26.396Z,3.67
2022-10-10T07:47:53.905Z,4.07
2022-10-10T07:50:20.928Z,3.47
2022-10-10T07:52:47.615Z,3.30
2022-10-10T07:55:15.174Z,3.50
2022-10-10T07:57:42.933Z,4.00
2022-10-10T08:00:11.643Z,4.67
2022-10-10T08:02:41.723Z,3.83
2022-10-10T08:05:08.950Z,4.40
2022-10-10T08:07:36.583Z,3.70
2022-10-10T08:10:03.564Z,3.77
2022-10-10T08:12:30.349Z,2.70
2022-10-10T08:14:59.413Z,4.80
2022-10-10T08:17:26.419Z,8.00
2022-10-10T08:19:53.366Z,10.53
2022-10-10T08:22:19.956Z,5.33
2022-10-10T08:24:46.581Z,3.33
2022-10-10T08:27:14.639Z,3.47
2022-10-10T08:29:41.347Z,3.13
2022-10-10T08:32:08.000Z,2.87
2022-10-10T08:34:37.390Z,2.70
2022-10-10T08:37:04.025Z,2.70
2022-10-10T08:39:30.828Z,2.40
2022-10-10T08:41:59.028Z,2.60
2022-10-10T08:44:40.517Z,2.83
2022-10-10T08:47:10.180Z,3.20
2022-10-10T08:49:38.613Z,2.70
2022-10-10T08:52:18.539Z,2.40
2022-10-10T08:54:46.650Z,2.60
2022-10-10T08:57:20.289Z,2.60
2022-10-10T08:59:47.060Z,2.53
2022-10-10T09:02:17.747Z,1.90
2022-10-10T09:04:45.724Z,2.30
2022-10-10T09:07:18.595Z,2.53
2022-10-10T09:10:03.681Z,2.13
2022-10-10T09:12:48.749Z,2.40
2022-10-10T09:15:20.921Z,2.10
2022-10-10T09:17:54.646Z,1.83
2022-10-10T09:20:39.891Z,2.10
2022-10-10T09:23:19.963Z,1.70
2022-10-10T09:25:53.302Z,1.90
2022-10-10T09:28:36.008Z,1.87
2022-10-10T09:31:03.006Z,2.10
2022-10-10T09:33:41.729Z,2.20
2022-10-10T09:36:10.890Z,2.20
2022-10-10T09:38:38.994Z,1.87
2022-10-10T09:41:13.479Z,2.10
2022-10-10T09:43:41.063Z,2.43
2022-10-10T09:46:07.760Z,2.33
2022-10-10T09:48:36.484Z,2.40
2022-10-10T09:51:04.539Z,2.37
2022-10-10T09:53:31.153Z,2.20
2022-10-10T09:55:58.538Z,2.97
2022-10-10T09:58:28.222Z,1.93
2022-10-10T10:00:55.051Z,1.80
2022-10-10T10:03:22.715Z,2.33
2022-10-10T10:06:01.807Z,1.90
2022-10-10T10:08:30.087Z,1.80
2022-10-10T10:11:00.796Z,2.33
2022-10-10T10:13:32.482Z,1.73
2022-10-10T10:16:14.817Z,1.80
2022-10-10T10:18:42.839Z,2.20
2022-10-10T10:21:12.485Z,2.00
2022-10-10T10:23:42.321Z,2.20
2022-10-10T10:26:22.723Z,2.07
2022-10-10T10:28:50.122Z,2.43
2022-10-10T10:31:42.550Z,2.00
2022-10-10T10:34:14.300Z,1.87
2022-10-10T10:36:52.815Z,2.30
2022-10-10T10:39:25.345Z,2.30
2022-10-10T10:42:04.337Z,2.30
2022-10-10T10:44:40.157Z,2.40
2022-10-10T10:47:25.788Z,2.03
2022-10-10T10:50:16.948Z,1.93
2022-10-10T10:52:55.776Z,2.37
2022-10-10T10:55:45.709Z,2.40
2022-10-10T11:01:24.296Z,2.70
2022-10-10T11:05:19.392Z,2.43
2022-10-10T11:07:17.918Z,2.20
2022-10-10T11:09:56.784Z,2.37
2022-10-10T11:12:29.564Z,2.40
2022-10-10T11:14:56.189Z,2.40
2022-10-10T11:17:32.549Z,2.87
2022-10-10T11:20:08.212Z,2.43
2022-10-10T11:22:41.303Z,2.63
2022-10-10T11:25:29.480Z,2.40
2022-10-10T11:27:59.136Z,2.47
2022-10-10T11:30:27.148Z,2.23
2022-10-10T11:33:04.368Z,2.50
2022-10-10T11:35:37.023Z,2.10
2022-10-10T11:38:12.615Z,2.20
2022-10-10T11:40:48.009Z,2.20
2022-10-10T11:43:20.066Z,2.30
2022-10-10T11:45:52.318Z,2.23
2022-10-10T11:48:41.671Z,2.23
2022-10-10T11:51:31.374Z,2.87
2022-10-10T11:54:00.361Z,2.70
2022-10-10T11:56:37.169Z,2.50
2022-10-10T11:59:24.471Z,2.50
2022-10-10T12:01:56.273Z,2.43
2022-10-10T12:04:23.514Z,2.70
2022-10-10T12:06:56.699Z,2.50
2022-10-10T12:09:29.906Z,3.20
2022-10-10T12:11:56.447Z,2.60
2022-10-10T12:14:25.093Z,2.47
2022-10-10T12:16:52.088Z,3.10
2022-10-10T12:19:20.232Z,2.60
2022-10-10T12:21:52.834Z,2.80
2022-10-10T12:24:19.521Z,2.33
2022-10-10T12:26:55.283Z,2.30
2022-10-10T12:29:40.634Z,2.40
2022-10-10T12:32:30.799Z,2.53
2022-10-10T12:34:59.526Z,2.20
2022-10-10T12:37:28.040Z,2.03
2022-10-10T12:40:07.078Z,3.33
2022-10-10T12:42:59.537Z,2.30
2022-10-10T12:45:29.148Z,2.67
2022-10-10T12:48:17.303Z,2.50
2022-10-10T12:50:53.459Z,2.40
2022-10-10T12:53:22.189Z,2.60
2022-10-10T12:55:50.404Z,2.50
2022-10-10T12:58:27.161Z,2.73
2022-10-10T13:00:56.076Z,2.93
2022-10-10T13:03:32.471Z,2.83
2022-10-10T13:06:03.051Z,2.83
2022-10-10T13:08:30.234Z,3.00
2022-10-10T13:11:05.174Z,2.43
2022-10-10T13:13:32.120Z,3.30
2022-10-10T13:15:59.436Z,2.50
2022-10-10T13:18:44.222Z,2.80
2022-10-10T13:21:12.997Z,2.30
2022-10-10T13:26:34.265Z,2.27
2022-10-10T13:29:05.000Z,2.60
2022-10-10T13:31:31.794Z,2.60
2022-10-10T13:33:59.387Z,2.63
2022-10-10T13:36:27.702Z,2.73
2022-10-10T13:38:54.429Z,2.57
2022-10-10T13:41:22.532Z,2.70
2022-10-10T13:43:49.508Z,2.30
2022-10-10T13:46:23.585Z,2.80
2022-10-10T13:48:53.210Z,2.63
2022-10-10T13:51:20.366Z,2.87
2022-10-10T13:53:50.081Z,2.40
2022-10-10T13:56:18.190Z,2.77
2022-10-10T13:58:53.889Z,2.90
2022-10-10T14:01:23.452Z,2.77
2022-10-10T14:03:51.838Z,2.70
2022-10-10T14:06:24.560Z,2.67
2022-10-10T14:08:52.421Z,4.13
2022-10-10T14:11:20.212Z,3.00
2022-10-10T14:13:51.737Z,2.73
2022-10-10T14:16:18.411Z,3.27
2022-10-10T14:18:45.835Z,4.03
2022-10-10T14:21:13.119Z,3.43
2022-10-10T14:23:39.829Z,3.60
2022-10-10T14:26:11.562Z,3.47
2022-10-10T14:28:38.812Z,3.57
2022-10-10T14:31:06.033Z,3.90
2022-10-10T14:33:32.782Z,3.87
2022-10-10T14:36:00.040Z,3.33
2022-10-10T14:38:27.194Z,3.27
2022-10-10T14:40:54.363Z,2.97
2022-10-10T14:43:22.619Z,3.20
2022-10-10T14:45:50.142Z,3.00
2022-10-10T14:48:17.130Z,3.57
2022-10-10T14:50:44.908Z,3.23
2022-10-10T14:53:11.731Z,3.50
2022-10-10T14:55:43.168Z,3.73
2022-10-10T14:58:17.446Z,3.97
2022-10-10T15:00:44.534Z,3.20
2022-10-10T15:03:11.375Z,3.37
2022-10-10T15:05:38.129Z,3.33
2022-10-10T15:08:04.869Z,3.50
2022-10-10T15:10:34.383Z,3.37
2022-10-10T15:13:01.978Z,3.40
2022-10-10T15:15:28.635Z,3.90
2022-10-10T15:17:56.761Z,4.17
2022-10-10T15:20:30.522Z,3.40
2022-10-10T15:23:01.986Z,3.80
2022-10-10T15:25:33.409Z,3.87
2022-10-10T15:28:01.332Z,4.03
2022-10-10T15:30:28.055Z,3.63
2022-10-10T15:32:54.759Z,3.63
2022-10-10T15:35:22.497Z,3.50
2022-10-10T15:37:49.157Z,3.37
2022-10-10T15:40:19.536Z,3.77
2022-10-10T15:42:46.792Z,3.87
2022-10-10T15:45:19.353Z,3.93
2022-10-10T15:47:58.519Z,3.47
2022-10-10T15:50:27.047Z,3.60
2022-10-10T15:52:54.098Z,4.03
2022-10-10T15:55:20.994Z,3.67
2022-10-10T15:57:47.877Z,3.67
2022-10-10T16:00:15.429Z,3.80
2022-10-10T16:02:42.470Z,4.17
2022-10-10T16:05:10.292Z,3.90
2022-10-10T16:07:46.685Z,3.27
2022-10-10T16:10:14.556Z,3.93
2022-10-10T16:12:41.454Z,3.50
2022-10-10T16:15:08.271Z,3.50
2022-10-10T16:17:35.026Z,4.00
2022-10-10T16:20:01.647Z,4.00
2022-10-10T16:22:28.302Z,4.00
2022-10-10T16:27:42.824Z,4.40
2022-10-10T16:30:09.667Z,4.73
2022-10-10T16:32:41.754Z,4.03
2022-10-10T16:35:09.897Z,4.63
2022-10-10T16:37:36.477Z,3.97
2022-10-10T16:40:03.253Z,4.50
2022-10-10T16:42:29.817Z,4.27
2022-10-10T16:44:56.457Z,4.10
2022-10-10T16:47:23.116Z,5.50
2022-10-10T16:49:49.699Z,5.43
2022-10-10T16:52:16.267Z,5.00
2022-10-10T16:54:42.868Z,5.80
2022-10-10T16:57:09.523Z,5.70
2022-10-10T16:59:36.111Z,6.13
2022-10-10T17:02:02.785Z,5.43
2022-10-10T17:04:29.391Z,5.97
2022-10-10T17:06:55.978Z,6.07
2022-10-10T17:09:23.836Z,6.50
2022-10-10T17:11:51.571Z,6.23
2022-10-10T17:14:18.446Z,6.90
2022-10-10T17:17:10.511Z,6.80
2022-10-10T17:19:31.980Z,7.10
2022-10-10T17:21:59.582Z,7.30
2022-10-10T17:24:28.258Z,6.93
2022-10-10T17:26:54.883Z,7.40
2022-10-10T17:29:23.690Z,7.60
2022-10-10T17:31:50.412Z,6.00
2022-10-10T17:34:17.185Z,5.17
2022-10-10T17:36:43.816Z,4.40
2022-10-10T17:39:10.409Z,4.10
2022-10-10T17:41:37.085Z,3.40
2022-10-10T17:44:05.324Z,3.60
2022-10-10T17:46:35.857Z,3.63
2022-10-10T17:49:04.220Z,3.80
2022-10-10T17:51:30.885Z,3.47
2022-10-10T17:53:59.420Z,3.53
2022-10-10T17:56:26.137Z,3.47
2022-10-10T17:58:52.727Z,3.20
2022-10-10T18:01:19.822Z,3.73
2022-10-10T18:03:46.770Z,3.90
2022-10-10T18:06:15.304Z,3.60
2022-10-10T18:08:42.195Z,3.63
2022-10-10T18:11:28.580Z,4.00
2022-10-10T18:14:00.180Z,4.27
2022-10-10T18:16:28.566Z,3.70
2022-10-10T18:18:55.259Z,3.87
2022-10-10T18:21:23.107Z,3.37
2022-10-10T18:23:50.045Z,1.80
2022-10-10T18:26:19.213Z,1.70
2022-10-10T18:28:45.930Z,1.00
2022-10-10T18:31:14.027Z,1.10
2022-10-10T18:33:41.601Z,1.87
2022-10-10T18:36:09.230Z,1.57
2022-10-10T18:38:35.892Z,1.50
2022-10-10T18:41:10.034Z,2.30
2022-10-10T18:43:37.046Z,1.70
2022-10-10T18:46:05.802Z,1.60
2022-10-10T18:48:32.552Z,1.77
2022-10-10T18:51:03.427Z,1.57
2022-10-10T18:53:30.548Z,1.87
2022-10-10T18:55:58.126Z,1.40
2022-10-10T18:58:24.869Z,1.83
2022-10-10T19:00:51.745Z,1.97
2022-10-10T19:03:18.592Z,1.50
2022-10-10T19:05:45.200Z,1.80
2022-10-10T19:08:11.880Z,1.37
2022-10-10T19:10:44.056Z,1.90
2022-10-10T19:13:10.824Z,1.60
2022-10-10T19:15:37.591Z,1.57
2022-10-10T19:18:04.324Z,1.90
2022-10-10T19:20:33.305Z,1.87
2022-10-10T19:23:00.004Z,1.93
2022-10-10T19:25:29.930Z,1.60
2022-10-10T19:27:57.062Z,1.70
2022-10-10T19:30:23.871Z,2.30
2022-10-10T19:32:50.574Z,1.70
2022-10-10T19:35:17.281Z,1.63
2022-10-10T19:37:43.957Z,1.70
2022-10-10T19:40:10.992Z,1.77
2022-10-10T19:42:37.723Z,1.77
2022-10-10T19:45:04.695Z,2.27
2022-10-10T19:47:31.402Z,1.40
2022-10-10T19:49:57.996Z,1.60
2022-10-10T19:52:24.573Z,1.57
2022-10-10T19:54:52.603Z,2.20
2022-10-10T19:57:19.197Z,2.40
2022-10-10T19:59:45.783Z,1.83
2022-10-10T20:02:12.413Z,1.80
2022-10-10T20:04:38.972Z,2.43
2022-10-10T20:07:05.645Z,1.67
2022-10-10T20:09:32.437Z,2.40
2022-10-10T20:11:59.055Z,2.10
2022-10-10T20:14:25.848Z,2.03
2022-10-10T20:16:52.668Z,2.23
2022-10-10T20:19:19.332Z,1.77
2022-10-10T20:21:46.948Z,1.80
2022-10-10T20:24:13.730Z,2.07
2022-10-10T20:26:40.374Z,2.53
2022-10-10T20:29:07.524Z,1.73
2022-10-10T20:31:35.114Z,2.27
2022-10-10T20:34:02.274Z,2.40
2022-10-10T20:36:30.981Z,1.87
2022-10-10T20:39:01.784Z,2.20
2022-10-10T20:41:31.052Z,2.30
2022-10-10T20:43:58.542Z,2.50
2022-10-10T20:46:29.075Z,2.37
2022-10-10T20:48:56.418Z,1.93
2022-10-10T20:51:23.297Z,2.03
2022-10-10T20:53:57.028Z,2.33
2022-10-10T20:56:24.459Z,3.27
2022-10-10T20:58:51.581Z,2.17
2022-10-10T21:01:19.510Z,2.03
2022-10-10T21:03:48.804Z,2.70
2022-10-10T21:06:15.473Z,2.20
2022-10-10T21:08:42.311Z,2.27
2022-10-10T21:11:10.419Z,2.77
2022-10-10T21:13:37.996Z,3.27
2022-10-10T21:16:08.790Z,2.30
2022-10-10T21:18:35.514Z,2.20
2022-10-10T21:21:02.701Z,2.60
2022-10-10T21:23:30.248Z,2.57
2022-10-10T21:25:56.939Z,2.73
2022-10-10T21:28:23.861Z,2.83
2022-10-10T21:30:51.638Z,2.80
2022-10-10T21:33:21.393Z,3.57
2022-10-10T21:35:50.571Z,2.90
2022-10-10T21:38:17.138Z,2.83
2022-10-10T21:40:44.304Z,4.07
2022-10-10T21:43:11.236Z,3.20
2022-10-10T21:45:38.307Z,3.73
2022-10-10T21:48:06.266Z,3.50
2022-10-10T21:50:33.489Z,4.60
2022-10-10T21:53:00.103Z,4.80
2022-10-10T21:55:26.779Z,4.70
2022-10-10T21:57:53.572Z,4.33
2022-10-10T22:00:20.729Z,4.13
2022-10-10T22:02:47.513Z,4.27
2022-10-10T22:05:15.094Z,4.40
2022-10-10T22:07:42.526Z,3.50
2022-10-10T22:10:10.396Z,3.73
2022-10-10T22:12:36.958Z,3.50
2022-10-10T22:15:03.620Z,3.23
2022-10-10T22:17:30.380Z,3.50
2022-10-10T22:19:56.973Z,3.77
2022-10-10T22:22:23.677Z,4.10
2022-10-10T22:24:50.571Z,3.30
2022-10-10T22:27:17.169Z,3.93
2022-10-10T22:29:43.796Z,3.67
2022-10-10T22:32:10.411Z,3.97
2022-10-10T22:34:37.062Z,3.37
2022-10-10T22:37:04.019Z,3.77
2022-10-10T22:39:31.088Z,3.70
2022-10-10T22:41:57.688Z,3.70
2022-10-10T22:44:24.282Z,3.87
2022-10-10T22:46:50.884Z,3.80
2022-10-10T22:49:18.076Z,3.77
2022-10-10T22:51:44.762Z,3.93
2022-10-10T22:54:12.981Z,3.97
2022-10-10T22:56:39.548Z,4.13
2022-10-10T22:59:06.184Z,4.40
2022-10-10T23:01:32.787Z,4.27
2022-10-10T23:04:00.685Z,4.07
2022-10-10T23:06:27.498Z,4.40
2022-10-10T23:08:54.123Z,5.20
2022-10-10T23:11:20.739Z,4.90
2022-10-10T23:13:47.316Z,5.00
2022-10-10T23:16:13.907Z,5.03
2022-10-10T23:18:40.586Z,4.90
2022-10-10T23:21:07.217Z,5.53
2022-10-10T23:23:33.981Z,5.63
2022-10-10T23:26:04.192Z,4.97
2022-10-10T23:28:31.083Z,4.80
2022-10-10T23:31:01.015Z,5.30
2022-10-10T23:33:27.730Z,5.57
2022-10-10T23:36:00.445Z,5.70
2022-10-10T23:38:27.332Z,5.87
2022-10-10T23:40:54.433Z,5.23
2022-10-10T23:43:21.563Z,5.60
2022-10-10T23:45:48.267Z,5.10
2022-10-10T23:48:15.013Z,5.63
2022-10-10T23:50:41.605Z,5.87
2022-10-10T23:53:08.219Z,6.03
2022-10-10T23:55:35.028Z,6.00
2022-10-10T23:58:03.283Z,6.30
